Sayner, WI (54560)

3:29 AM CDT on September 20, 2014 (GMT -0500)
Razorback Lake | Change Station
CLOSE
Current Station
Personal Weather Station
Location: Sayner, WI
Elevation: 1696 ft
Nearby Weather Stations

Elev 1696 ft 46.03 °N, 89.52 °W | Updated 10 seconds ago

Overcast
Overcast
64.2 °F
Feels Like 64.2 °F
N
2.0
Wind Variable Wind from SSW
Gusts 2.5 mph

Today
High -- | Low -- °F
--% Chance of Precip.
Yesterday
High -- | Low -- °F
Precip. -- in
6:42 AM 6:59 PM
Waning Crescent, 13% visible
Pressure 29.67 in
Visibility 10.0 miles
Clouds Overcast 1100 ft
Dew Point 62 °F
Humidity 92%
Rainfall 0.00 in
Snow Depth Not available.
UV 0 out of 12
Pollen 4.20 out of 12
Air Quality Not available.
Flu Activity Not available.
METAR KARV 200815Z AUTO 21007KT 10SM OVC011 18/16 A2967 RMK AO2 LTG DSNT SE T01800160

More Conditions Fewer Conditions

Pressure 29.67 in
Visibility 10.0 miles
Clouds Overcast 1100 ft
Dew Point 62 °F
Humidity 92%
Rainfall 0.00 in
Snow Depth Not available.
UV 0 out of 12
Pollen 4.20 out of 12
Air Quality Not available.
Flu Activity Not available.
METAR KARV 200815Z AUTO 21007KT 10SM OVC011 18/16 A2967 RMK AO2 LTG DSNT SE T01800160

More Conditions Fewer Conditions

10-Day Weather Forecast

Almanac

Astronomy

Sep. 20, 2014 Rise Set
Actual Time 6:42 AM CDT 6:59 PM CDT
Civil Twilight 6:12 AM CDT 7:29 PM CDT
Nautical Twilight 5:37 AM CDT 8:04 PM CDT
Astronomical Twilight 5:01 AM CDT 8:40 PM CDT
Moon 3:12 AM CDT 5:10 PM CDT
Length of Visible Light 13h 16m
Length of Day
12h 17m
Tomorrow will be 3m 13s shorter.
Waning Crescent, 13% of the Moon is Illuminated
Today
Waning Crescent
Sep 24
New
Oct 1
First Quarter
Oct 8
Full
Oct 15
Last Quarter

Today's Extremes

State Highs State Lows

Community

WunderPhotos

Upload Photos

1,754,793 photos uploaded!

WunderBlogs® & News

Nearby

Snow Depth

Station Depth Elevation
No new snow has been reported.

Earthquake Activity

City Distance Mag. Time & Date
No recent earthquake activity has been reported nearby.
Minimum magnitude displayed is 2.5.

Coastal Water Temperatures

Place Temperature
No Stations Reporting

Nearby Weather Stations